Terminal Aerodrome Forecast
Issued by NWS

Home | Current Version | Previous Version | Text Only | Print | Product List | Glossary On
Versions: 1 2 3 4 5 6 7 8 9 10 11 12 13 14 15 16 17 18 19 20 21 22 23 24 25 26 27 28 29 30 31 32 33 34 35 36 37 38 39 40
000
FTAK31 PANC 271342 AAA
TAFASD
TAF AMD
PASD 271342Z 2714/2812 VRB03KT P6SM SCT025 BKN040
      TEMPO 2714/2716 1/4SM FG OVC001
     FM271800 36005KT P6SM SCT035 BKN120
     FM280300 36010KT P6SM BKN090
      AMD LTD TO CLD VIS AND WIND=

USA.gov is the U.S. government's official web portal to all federal, state and local government web resources and services.